sensor_id;sensor_type;location;lat;lon;timestamp;pressure;altitude;pressure_sealevel;temperature;humidity
68399;BME280;56258;52.196;13.868;2022-07-09T00:01:02;102056.41;;;22.62;49.26
68399;BME280;56258;52.196;13.868;2022-07-09T00:03:29;102057.59;;;22.60;49.26
68399;BME280;56258;52.196;13.868;2022-07-09T00:05:57;102065.53;;;22.61;49.71
68399;BME280;56258;52.196;13.868;2022-07-09T00:08:23;102060.78;;;22.63;49.20
68399;BME280;56258;52.196;13.868;2022-07-09T00:10:50;102059.78;;;22.64;49.70
68399;BME280;56258;52.196;13.868;2022-07-09T00:13:17;102058.94;;;22.64;49.26
68399;BME280;56258;52.196;13.868;2022-07-09T00:15:43;102060.28;;;22.60;49.84
68399;BME280;56258;52.196;13.868;2022-07-09T00:18:10;102062.16;;;22.59;50.06
68399;BME280;56258;52.196;13.868;2022-07-09T00:20:37;102068.91;;;22.55;49.50
68399;BME280;56258;52.196;13.868;2022-07-09T00:23:04;102060.78;;;22.55;50.08
68399;BME280;56258;52.196;13.868;2022-07-09T00:25:31;102062.31;;;22.50;50.15
68399;BME280;56258;52.196;13.868;2022-07-09T00:27:58;102059.94;;;22.55;50.22
68399;BME280;56258;52.196;13.868;2022-07-09T00:30:24;102069.94;;;22.54;49.38
68399;BME280;56258;52.196;13.868;2022-07-09T00:32:51;102066.88;;;22.57;50.09
68399;BME280;56258;52.196;13.868;2022-07-09T00:35:18;102057.06;;;22.56;50.04
68399;BME280;56258;52.196;13.868;2022-07-09T00:37:44;102054.69;;;22.53;49.82
68399;BME280;56258;52.196;13.868;2022-07-09T00:40:11;102058.75;;;22.49;49.54
68399;BME280;56258;52.196;13.868;2022-07-09T00:42:38;102056.22;;;22.56;49.54
68399;BME280;56258;52.196;13.868;2022-07-09T00:45:05;102062.31;;;22.50;50.21
68399;BME280;56258;52.196;13.868;2022-07-09T00:47:32;102062.66;;;22.47;49.71
68399;BME280;56258;52.196;13.868;2022-07-09T00:49:59;102058.09;;;22.47;49.77
68399;BME280;56258;52.196;13.868;2022-07-09T00:52:26;102057.38;;;22.45;50.12
68399;BME280;56258;52.196;13.868;2022-07-09T00:54:54;102055.22;;;22.49;50.08
68399;BME280;56258;52.196;13.868;2022-07-09T00:57:21;102061.13;;;22.52;49.69
68399;BME280;56258;52.196;13.868;2022-07-09T00:59:48;102057.06;;;22.48;50.20
68399;BME280;56258;52.196;13.868;2022-07-09T01:02:17;102057.91;;;22.49;49.75
68399;BME280;56258;52.196;13.868;2022-07-09T01:04:45;102058.09;;;22.47;49.78
68399;BME280;56258;52.196;13.868;2022-07-09T01:07:11;102060.81;;;22.47;49.99
68399;BME280;56258;52.196;13.868;2022-07-09T01:09:38;102059.97;;;22.47;49.95
68399;BME280;56258;52.196;13.868;2022-07-09T01:12:06;102053.16;;;22.51;49.72
68399;BME280;56258;52.196;13.868;2022-07-09T01:14:34;102045.56;;;22.46;50.11
68399;BME280;56258;52.196;13.868;2022-07-09T01:17:05;102055.19;;;22.40;50.01
68399;BME280;56258;52.196;13.868;2022-07-09T01:19:33;102038.28;;;22.47;50.34
68399;BME280;56258;52.196;13.868;2022-07-09T01:22:00;102040.13;;;22.46;49.86
68399;BME280;56258;52.196;13.868;2022-07-09T01:24:31;102040.13;;;22.46;50.10
68399;BME280;56258;52.196;13.868;2022-07-09T01:26:59;102043.69;;;22.47;50.46
68399;BME280;56258;52.196;13.868;2022-07-09T01:29:26;102043.16;;;22.43;50.05
68399;BME280;56258;52.196;13.868;2022-07-09T01:31:53;102037.75;;;22.43;50.03
68399;BME280;56258;52.196;13.868;2022-07-09T01:34:20;102043.16;;;22.43;50.22
68399;BME280;56258;52.196;13.868;2022-07-09T01:36:47;102037.91;;;22.41;50.18
68399;BME280;56258;52.196;13.868;2022-07-09T01:39:13;102036.56;;;22.46;50.72
68399;BME280;56258;52.196;13.868;2022-07-09T01:41:40;102031.31;;;22.44;50.42
68399;BME280;56258;52.196;13.868;2022-07-09T01:44:07;102030.28;;;22.45;50.66
68399;BME280;56258;52.196;13.868;2022-07-09T01:46:35;102028.59;;;22.44;49.93
68399;BME280;56258;52.196;13.868;2022-07-09T01:49:03;102021.66;;;22.50;49.79
68399;BME280;56258;52.196;13.868;2022-07-09T01:51:31;102016.91;;;22.43;50.43
68399;BME280;56258;52.196;13.868;2022-07-09T01:54:01;102011.66;;;22.42;50.14
68399;BME280;56258;52.196;13.868;2022-07-09T01:56:28;102003.53;;;22.42;50.11
68399;BME280;56258;52.196;13.868;2022-07-09T01:58:55;102009.97;;;22.41;50.01
68399;BME280;56258;52.196;13.868;2022-07-09T02:01:22;102008.63;;;22.37;49.82
68399;BME280;56258;52.196;13.868;2022-07-09T02:03:49;101995.75;;;22.39;50.49
68399;BME280;56258;52.196;13.868;2022-07-09T02:06:15;102004.56;;;22.41;50.08
68399;BME280;56258;52.196;13.868;2022-07-09T02:08:42;101999.81;;;22.43;49.99
68399;BME280;56258;52.196;13.868;2022-07-09T02:11:09;102001.50;;;22.44;49.99
68399;BME280;56258;52.196;13.868;2022-07-09T02:13:37;102006.75;;;22.46;49.55
68399;BME280;56258;52.196;13.868;2022-07-09T02:16:04;102007.28;;;22.49;50.12
68399;BME280;56258;52.196;13.868;2022-07-09T02:18:31;102004.22;;;22.44;49.73
68399;BME280;56258;52.196;13.868;2022-07-09T02:20:58;101998.63;;;22.46;50.15
68399;BME280;56258;52.196;13.868;2022-07-09T02:23:24;101993.38;;;22.44;49.61
68399;BME280;56258;52.196;13.868;2022-07-09T02:25:51;101991.38;;;22.46;49.81
68399;BME280;56258;52.196;13.868;2022-07-09T02:28:18;101991.50;;;22.53;49.27
68399;BME280;56258;52.196;13.868;2022-07-09T02:30:44;101991.69;;;22.43;49.49
68399;BME280;56258;52.196;13.868;2022-07-09T02:33:11;101990.84;;;22.42;49.92
68399;BME280;56258;52.196;13.868;2022-07-09T02:35:38;101998.47;;;22.39;50.04
68399;BME280;56258;52.196;13.868;2022-07-09T02:38:05;101992.69;;;22.42;49.37
68399;BME280;56258;52.196;13.868;2022-07-09T02:40:31;101991.50;;;22.45;49.20
68399;BME280;56258;52.196;13.868;2022-07-09T02:42:58;101987.09;;;22.43;49.44
68399;BME280;56258;52.196;13.868;2022-07-09T02:45:25;101980.34;;;22.31;50.22
68399;BME280;56258;52.196;13.868;2022-07-09T02:47:51;101986.09;;;22.28;49.58
68399;BME280;56258;52.196;13.868;2022-07-09T02:50:18;101993.72;;;22.33;49.48
68399;BME280;56258;52.196;13.868;2022-07-09T02:52:45;101988.63;;;22.30;49.39
68399;BME280;56258;52.196;13.868;2022-07-09T02:55:11;101989.81;;;22.27;49.90
68399;BME280;56258;52.196;13.868;2022-07-09T02:57:38;102000.81;;;22.34;49.55
68399;BME280;56258;52.196;13.868;2022-07-09T03:00:05;101992.84;;;22.32;49.73
68399;BME280;56258;52.196;13.868;2022-07-09T03:02:32;101993.41;;;22.36;50.01
68399;BME280;56258;52.196;13.868;2022-07-09T03:04:59;101997.44;;;22.32;49.49
68399;BME280;56258;52.196;13.868;2022-07-09T03:07:26;101993.38;;;22.28;50.16
68399;BME280;56258;52.196;13.868;2022-07-09T03:09:52;101995.91;;;22.29;49.45
68399;BME280;56258;52.196;13.868;2022-07-09T03:12:19;101997.78;;;22.29;50.17
68399;BME280;56258;52.196;13.868;2022-07-09T03:14:46;101996.94;;;22.28;49.93
68399;BME280;56258;52.196;13.868;2022-07-09T03:17:12;101987.97;;;22.28;49.89
68399;BME280;56258;52.196;13.868;2022-07-09T03:19:39;101996.59;;;22.31;49.31
68399;BME280;56258;52.196;13.868;2022-07-09T03:22:06;101999.13;;;22.33;49.43
68399;BME280;56258;52.196;13.868;2022-07-09T03:24:32;101999.97;;;22.33;49.20
68399;BME280;56258;52.196;13.868;2022-07-09T03:26:59;102000.81;;;22.34;49.25
68399;BME280;56258;52.196;13.868;2022-07-09T03:29:26;102000.81;;;22.34;49.17
68399;BME280;56258;52.196;13.868;2022-07-09T03:31:52;101998.97;;;22.34;49.04
68399;BME280;56258;52.196;13.868;2022-07-09T03:34:19;101997.94;;;22.43;48.89
68399;BME280;56258;52.196;13.868;2022-07-09T03:36:46;102005.56;;;22.40;49.01
68399;BME280;56258;52.196;13.868;2022-07-09T03:39:13;101999.13;;;22.33;49.57
68399;BME280;56258;52.196;13.868;2022-07-09T03:41:40;102003.88;;;22.31;49.67
68399;BME280;56258;52.196;13.868;2022-07-09T03:44:07;102004.22;;;22.36;49.18
68399;BME280;56258;52.196;13.868;2022-07-09T03:46:33;102005.56;;;22.40;48.85
68399;BME280;56258;52.196;13.868;2022-07-09T03:49:00;102005.75;;;22.47;48.73
68399;BME280;56258;52.196;13.868;2022-07-09T03:51:27;102000.16;;;22.32;48.77
68399;BME280;56258;52.196;13.868;2022-07-09T03:53:54;102003.88;;;22.31;49.49
68399;BME280;56258;52.196;13.868;2022-07-09T03:56:21;102000.81;;;22.34;48.88
68399;BME280;56258;52.196;13.868;2022-07-09T03:58:47;102000.50;;;22.29;49.09
68399;BME280;56258;52.196;13.868;2022-07-09T04:01:14;102007.44;;;22.31;49.50
68399;BME280;56258;52.196;13.868;2022-07-09T04:03:41;102015.06;;;22.36;49.22
68399;BME280;56258;52.196;13.868;2022-07-09T04:06:08;102016.06;;;22.43;48.71
68399;BME280;56258;52.196;13.868;2022-07-09T04:08:34;102022.00;;;22.38;48.83
68399;BME280;56258;52.196;13.868;2022-07-09T04:11:02;102025.22;;;22.26;49.46
68399;BME280;56258;52.196;13.868;2022-07-09T04:13:29;102032.66;;;22.24;49.60
68399;BME280;56258;52.196;13.868;2022-07-09T04:15:56;102022.69;;;22.24;48.87
68399;BME280;56258;52.196;13.868;2022-07-09T04:18:22;102025.69;;;22.21;49.05
68399;BME280;56258;52.196;13.868;2022-07-09T04:20:49;102031.47;;;22.26;49.26
68399;BME280;56258;52.196;13.868;2022-07-09T04:23:17;102024.03;;;22.28;49.41
68399;BME280;56258;52.196;13.868;2022-07-09T04:25:43;102021.66;;;22.25;49.52
68399;BME280;56258;52.196;13.868;2022-07-09T04:28:12;102018.41;;;22.22;49.08
68399;BME280;56258;52.196;13.868;2022-07-09T04:30:38;102023.66;;;22.15;49.66
68399;BME280;56258;52.196;13.868;2022-07-09T04:33:05;102026.03;;;22.18;49.52
68399;BME280;56258;52.196;13.868;2022-07-09T04:35:32;102032.13;;;22.20;48.98
68399;BME280;56258;52.196;13.868;2022-07-09T04:37:59;102031.13;;;22.21;49.13
68399;BME280;56258;52.196;13.868;2022-07-09T04:40:25;102026.03;;;22.18;49.10
68399;BME280;56258;52.196;13.868;2022-07-09T04:42:52;102035.16;;;22.09;49.23
68399;BME280;56258;52.196;13.868;2022-07-09T04:45:19;102031.78;;;22.07;49.74
68399;BME280;56258;52.196;13.868;2022-07-09T04:47:46;102036.00;;;22.09;49.50
68399;BME280;56258;52.196;13.868;2022-07-09T04:50:13;102032.63;;;22.07;50.17
68399;BME280;56258;52.196;13.868;2022-07-09T04:52:40;102030.94;;;22.06;50.58
68399;BME280;56258;52.196;13.868;2022-07-09T04:55:07;102031.59;;;22.08;50.92
68399;BME280;56258;52.196;13.868;2022-07-09T04:57:36;102038.03;;;22.07;51.48
68399;BME280;56258;52.196;13.868;2022-07-09T05:00:03;102035.84;;;22.11;51.40
68399;BME280;56258;52.196;13.868;2022-07-09T05:02:30;102042.84;;;22.38;51.14
68399;BME280;56258;52.196;13.868;2022-07-09T05:04:56;102034.56;;;22.48;51.00
68399;BME280;56258;52.196;13.868;2022-07-09T05:07:23;102042.66;;;22.64;50.87
68399;BME280;56258;52.196;13.868;2022-07-09T05:09:50;102045.56;;;22.70;50.04
68399;BME280;56258;52.196;13.868;2022-07-09T05:12:16;102048.75;;;22.66;49.90
68399;BME280;56258;52.196;13.868;2022-07-09T05:14:43;102042.16;;;22.60;49.66
68399;BME280;56258;52.196;13.868;2022-07-09T05:17:10;102043.38;;;22.58;49.58
68399;BME280;56258;52.196;13.868;2022-07-09T05:19:36;102040.66;;;22.58;49.95
68399;BME280;56258;52.196;13.868;2022-07-09T05:22:03;102035.72;;;22.53;49.75
68399;BME280;56258;52.196;13.868;2022-07-09T05:24:30;102039.63;;;22.51;50.01
68399;BME280;56258;52.196;13.868;2022-07-09T05:26:57;102037.09;;;22.49;49.72
68399;BME280;56258;52.196;13.868;2022-07-09T05:29:24;102040.47;;;22.51;49.96
68399;BME280;56258;52.196;13.868;2022-07-09T05:31:51;102033.00;;;22.53;49.48
68399;BME280;56258;52.196;13.868;2022-07-09T05:34:18;102032.00;;;22.54;49.63
68399;BME280;56258;52.196;13.868;2022-07-09T05:36:45;102036.41;;;22.55;49.81
68399;BME280;56258;52.196;13.868;2022-07-09T05:39:11;102040.66;;;22.58;49.68
68399;BME280;56258;52.196;13.868;2022-07-09T05:41:38;102043.50;;;22.56;49.11
68399;BME280;56258;52.196;13.868;2022-07-09T05:44:05;102042.66;;;22.56;49.12
68399;BME280;56258;52.196;13.868;2022-07-09T05:46:31;102038.44;;;22.53;49.62
68399;BME280;56258;52.196;13.868;2022-07-09T05:48:58;102043.84;;;22.53;49.49
68399;BME280;56258;52.196;13.868;2022-07-09T05:51:25;102044.19;;;22.50;48.96
68399;BME280;56258;52.196;13.868;2022-07-09T05:53:51;102047.75;;;22.51;49.58
68399;BME280;56258;52.196;13.868;2022-07-09T05:56:18;102036.06;;;22.50;49.70
68399;BME280;56258;52.196;13.868;2022-07-09T05:58:45;102036.06;;;22.50;49.39
68399;BME280;56258;52.196;13.868;2022-07-09T06:01:12;102031.66;;;22.57;48.86
68399;BME280;56258;52.196;13.868;2022-07-09T06:03:40;102023.53;;;22.49;49.38
68399;BME280;56258;52.196;13.868;2022-07-09T06:06:07;102017.09;;;22.50;49.03
68399;BME280;56258;52.196;13.868;2022-07-09T06:08:33;102018.97;;;22.58;48.91
68399;BME280;56258;52.196;13.868;2022-07-09T06:11:02;102007.09;;;22.67;49.09
68399;BME280;56258;52.196;13.868;2022-07-09T06:13:29;102001.00;;;22.73;48.41
68399;BME280;56258;52.196;13.868;2022-07-09T06:15:55;102008.78;;;22.76;48.48
68399;BME280;56258;52.196;13.868;2022-07-09T06:18:22;102002.53;;;22.84;48.16
68399;BME280;56258;52.196;13.868;2022-07-09T06:20:49;102012.34;;;22.85;48.53
68399;BME280;56258;52.196;13.868;2022-07-09T06:23:16;102004.72;;;22.88;48.06
68399;BME280;56258;52.196;13.868;2022-07-09T06:25:42;102003.38;;;22.92;47.56
68399;BME280;56258;52.196;13.868;2022-07-09T06:28:09;102010.50;;;22.85;48.37
68399;BME280;56258;52.196;13.868;2022-07-09T06:30:36;102006.56;;;22.80;48.61
68399;BME280;56258;52.196;13.868;2022-07-09T06:33:03;102007.41;;;22.80;48.14
68399;BME280;56258;52.196;13.868;2022-07-09T06:35:30;102004.19;;;22.77;48.37
68399;BME280;56258;52.196;13.868;2022-07-09T06:37:57;102001.97;;;22.80;48.59
68399;BME280;56258;52.196;13.868;2022-07-09T06:40:24;101989.81;;;22.92;47.69
68399;BME280;56258;52.196;13.868;2022-07-09T06:42:51;101990.13;;;22.97;47.80
68399;BME280;56258;52.196;13.868;2022-07-09T06:45:17;101994.88;;;22.95;47.75
68399;BME280;56258;52.196;13.868;2022-07-09T06:47:44;101995.38;;;22.91;48.19
68399;BME280;56258;52.196;13.868;2022-07-09T06:50:11;101994.88;;;22.95;47.67
68399;BME280;56258;52.196;13.868;2022-07-09T06:52:38;101986.56;;;22.97;47.96
68399;BME280;56258;52.196;13.868;2022-07-09T06:55:05;101979.44;;;23.04;47.71
68399;BME280;56258;52.196;13.868;2022-07-09T06:57:32;101992.47;;;23.00;47.92
68399;BME280;56258;52.196;13.868;2022-07-09T06:59:59;101992.47;;;23.09;47.37
68399;BME280;56258;52.196;13.868;2022-07-09T07:02:25;101991.47;;;23.02;47.38
68399;BME280;56258;52.196;13.868;2022-07-09T07:04:52;101985.00;;;23.11;47.35
68399;BME280;56258;52.196;13.868;2022-07-09T07:07:19;101975.34;;;23.16;46.86
68399;BME280;56258;52.196;13.868;2022-07-09T07:09:46;101972.44;;;23.18;47.43
68399;BME280;56258;52.196;13.868;2022-07-09T07:12:13;101979.19;;;23.22;46.68
68399;BME280;56258;52.196;13.868;2022-07-09T07:14:39;101983.47;;;23.16;46.99
68399;BME280;56258;52.196;13.868;2022-07-09T07:17:06;101988.53;;;23.19;46.50
68399;BME280;56258;52.196;13.868;2022-07-09T07:19:33;101998.03;;;23.15;47.21
68399;BME280;56258;52.196;13.868;2022-07-09T07:22:00;101996.88;;;23.10;47.00
68399;BME280;56258;52.196;13.868;2022-07-09T07:24:27;102000.78;;;23.07;47.19
68399;BME280;56258;52.196;13.868;2022-07-09T07:26:53;102006.56;;;23.04;46.99
68399;BME280;56258;52.196;13.868;2022-07-09T07:29:20;101992.97;;;23.12;46.58
68399;BME280;56258;52.196;13.868;2022-07-09T07:31:47;101994.66;;;23.13;46.71
68399;BME280;56258;52.196;13.868;2022-07-09T07:34:13;101998.06;;;23.07;46.76
68399;BME280;56258;52.196;13.868;2022-07-09T07:36:48;101998.25;;;23.06;47.50
68399;BME280;56258;52.196;13.868;2022-07-09T07:39:17;101991.81;;;23.07;47.41
68399;BME280;56258;52.196;13.868;2022-07-09T07:41:44;101981.44;;;23.10;46.67
68399;BME280;56258;52.196;13.868;2022-07-09T07:44:10;101980.41;;;23.11;47.01
68399;BME280;56258;52.196;13.868;2022-07-09T07:46:37;101979.03;;;23.23;46.63
68399;BME280;56258;52.196;13.868;2022-07-09T07:49:04;101976.66;;;23.20;46.84
68399;BME280;56258;52.196;13.868;2022-07-09T07:51:30;101972.25;;;23.27;46.22
68399;BME280;56258;52.196;13.868;2022-07-09T07:53:57;101970.78;;;23.09;46.79
68399;BME280;56258;52.196;13.868;2022-07-09T07:56:24;101965.16;;;23.10;46.47
68399;BME280;56258;52.196;13.868;2022-07-09T07:58:50;101956.00;;;23.11;47.01
68399;BME280;56258;52.196;13.868;2022-07-09T08:01:17;101955.50;;;23.16;46.80
68399;BME280;56258;52.196;13.868;2022-07-09T08:03:44;101957.31;;;23.23;46.46
68399;BME280;56258;52.196;13.868;2022-07-09T08:06:10;101968.16;;;23.32;46.51
68399;BME280;56258;52.196;13.868;2022-07-09T08:08:37;101964.78;;;23.21;46.61
68399;BME280;56258;52.196;13.868;2022-07-09T08:11:05;101963.78;;;23.14;46.76
68399;BME280;56258;52.196;13.868;2022-07-09T08:13:31;101968.72;;;23.11;46.57
68399;BME280;56258;52.196;13.868;2022-07-09T08:15:58;101963.13;;;23.12;46.78
68399;BME280;56258;52.196;13.868;2022-07-09T08:18:28;101957.41;;;22.99;47.46
68399;BME280;56258;52.196;13.868;2022-07-09T08:20:55;101960.97;;;22.99;47.05
68399;BME280;56258;52.196;13.868;2022-07-09T08:23:21;101960.31;;;22.81;47.74
68399;BME280;56258;52.196;13.868;2022-07-09T08:25:48;101953.53;;;22.77;47.69
68399;BME280;56258;52.196;13.868;2022-07-09T08:28:16;101959.81;;;22.94;47.04
68399;BME280;56258;52.196;13.868;2022-07-09T08:30:43;101951.97;;;22.99;47.05
68399;BME280;56258;52.196;13.868;2022-07-09T08:33:09;101950.59;;;23.03;46.94
68399;BME280;56258;52.196;13.868;2022-07-09T08:35:39;101949.44;;;23.06;47.12
68399;BME280;56258;52.196;13.868;2022-07-09T08:38:06;101948.53;;;23.13;46.75
68399;BME280;56258;52.196;13.868;2022-07-09T08:40:33;101944.78;;;23.14;46.40
68399;BME280;56258;52.196;13.868;2022-07-09T08:43:09;101944.66;;;23.08;46.40
68399;BME280;56258;52.196;13.868;2022-07-09T08:45:37;101943.19;;;22.97;47.01
68399;BME280;56258;52.196;13.868;2022-07-09T08:48:05;101941.47;;;23.04;47.24
68399;BME280;56258;52.196;13.868;2022-07-09T08:50:33;101943.34;;;22.95;46.98
68399;BME280;56258;52.196;13.868;2022-07-09T08:53:01;101932.63;;;23.02;47.24
68399;BME280;56258;52.196;13.868;2022-07-09T08:55:29;101940.41;;;23.13;46.96
68399;BME280;56258;52.196;13.868;2022-07-09T08:57:56;101929.88;;;23.18;46.18
68399;BME280;56258;52.196;13.868;2022-07-09T09:00:23;101917.13;;;23.27;46.16
68399;BME280;56258;52.196;13.868;2022-07-09T09:02:50;101920.28;;;23.39;45.92
68399;BME280;56258;52.196;13.868;2022-07-09T09:05:17;101917.44;;;23.32;46.12
68399;BME280;56258;52.196;13.868;2022-07-09T09:07:44;101914.63;;;23.17;46.49
68399;BME280;56258;52.196;13.868;2022-07-09T09:10:24;101911.00;;;23.25;46.20
68399;BME280;56258;52.196;13.868;2022-07-09T09:12:58;101914.00;;;23.38;46.04
68399;BME280;56258;52.196;13.868;2022-07-09T09:15:25;101901.56;;;23.52;45.47
68399;BME280;56258;52.196;13.868;2022-07-09T09:17:52;101906.63;;;23.55;45.65
68399;BME280;56258;52.196;13.868;2022-07-09T09:20:19;101906.47;;;23.48;45.45
68399;BME280;56258;52.196;13.868;2022-07-09T09:22:51;101909.56;;;23.45;45.79
68399;BME280;56258;52.196;13.868;2022-07-09T09:25:21;101920.00;;;23.65;45.27
68399;BME280;56258;52.196;13.868;2022-07-09T09:27:56;101925.91;;;23.68;45.38
68399;BME280;56258;52.196;13.868;2022-07-09T09:30:23;101915.03;;;23.68;45.08
68399;BME280;56258;52.196;13.868;2022-07-09T09:33:00;101918.41;;;23.70;45.02
68399;BME280;56258;52.196;13.868;2022-07-09T09:35:34;101913.00;;;23.70;45.38
68399;BME280;56258;52.196;13.868;2022-07-09T09:38:01;101902.75;;;23.80;44.68
68399;BME280;56258;52.196;13.868;2022-07-09T09:40:28;101909.84;;;23.81;44.85
68399;BME280;56258;52.196;13.868;2022-07-09T09:42:56;101906.63;;;23.86;44.74
68399;BME280;56258;52.196;13.868;2022-07-09T09:45:27;101902.69;;;23.89;44.44
68399;BME280;56258;52.196;13.868;2022-07-09T09:47:54;101908.13;;;23.89;44.67
68399;BME280;56258;52.196;13.868;2022-07-09T09:50:24;101898.47;;;23.86;44.77
68399;BME280;56258;52.196;13.868;2022-07-09T09:52:53;101899.00;;;23.81;44.53
68399;BME280;56258;52.196;13.868;2022-07-09T09:55:21;101903.13;;;23.77;44.92
68399;BME280;56258;52.196;13.868;2022-07-09T09:57:49;101899.31;;;23.86;44.69
68399;BME280;56258;52.196;13.868;2022-07-09T10:00:16;101891.88;;;23.80;44.67
68399;BME280;56258;52.196;13.868;2022-07-09T10:02:45;101897.34;;;23.95;44.42
68399;BME280;56258;52.196;13.868;2022-07-09T10:05:13;101897.31;;;23.80;44.77
68399;BME280;56258;52.196;13.868;2022-07-09T10:07:43;101896.22;;;23.67;45.02
68399;BME280;56258;52.196;13.868;2022-07-09T10:10:18;101900.28;;;23.40;45.73
68399;BME280;56258;52.196;13.868;2022-07-09T10:12:46;101891.34;;;23.23;46.37
68399;BME280;56258;52.196;13.868;2022-07-09T10:15:26;101891.19;;;23.24;46.10
68399;BME280;56258;52.196;13.868;2022-07-09T10:17:54;101894.69;;;23.33;45.58
68399;BME280;56258;52.196;13.868;2022-07-09T10:20:33;101900.16;;;23.25;46.27
68399;BME280;56258;52.196;13.868;2022-07-09T10:23:01;101886.97;;;23.22;46.26
68399;BME280;56258;52.196;13.868;2022-07-09T10:25:41;101892.53;;;23.28;46.09
68399;BME280;56258;52.196;13.868;2022-07-09T10:28:19;101898.66;;;23.22;46.53
68399;BME280;56258;52.196;13.868;2022-07-09T10:30:47;101908.44;;;23.32;46.02
68399;BME280;56258;52.196;13.868;2022-07-09T10:33:32;101913.22;;;23.29;46.45
68399;BME280;56258;52.196;13.868;2022-07-09T10:36:10;101923.09;;;23.14;46.88
68399;BME280;56258;52.196;13.868;2022-07-09T10:38:37;101925.53;;;23.01;46.66
68399;BME280;56258;52.196;13.868;2022-07-09T10:41:07;101932.88;;;22.92;47.32
68399;BME280;56258;52.196;13.868;2022-07-09T10:43:42;101925.06;;;22.81;47.07
68399;BME280;56258;52.196;13.868;2022-07-09T10:46:13;101930.31;;;22.91;46.69
68399;BME280;56258;52.196;13.868;2022-07-09T10:48:41;101933.72;;;22.93;46.70
68399;BME280;56258;52.196;13.868;2022-07-09T10:51:16;101930.78;;;23.03;46.76
68399;BME280;56258;52.196;13.868;2022-07-09T10:53:43;101924.31;;;23.12;46.43
68399;BME280;56258;52.196;13.868;2022-07-09T10:56:10;101918.00;;;23.19;45.88
68399;BME280;56258;52.196;13.868;2022-07-09T10:58:37;101916.44;;;23.25;46.09
68399;BME280;56258;52.196;13.868;2022-07-09T11:01:04;101911.38;;;23.22;46.13
68399;BME280;56258;52.196;13.868;2022-07-09T11:03:31;101906.13;;;23.20;46.18
68399;BME280;56258;52.196;13.868;2022-07-09T11:05:58;101909.78;;;23.36;45.63
68399;BME280;56258;52.196;13.868;2022-07-09T11:08:25;101904.72;;;23.33;45.94
68399;BME280;56258;52.196;13.868;2022-07-09T11:10:52;101899.66;;;23.29;45.89
68399;BME280;56258;52.196;13.868;2022-07-09T11:13:23;101895.44;;;23.27;45.97
68399;BME280;56258;52.196;13.868;2022-07-09T11:15:57;101892.81;;;23.34;46.13
68399;BME280;56258;52.196;13.868;2022-07-09T11:18:26;101880.31;;;23.86;45.06
68399;BME280;56258;52.196;13.868;2022-07-09T11:20:53;101882.66;;;24.27;43.82
68399;BME280;56258;52.196;13.868;2022-07-09T11:23:20;101880.38;;;24.54;43.07
68399;BME280;56258;52.196;13.868;2022-07-09T11:25:47;101874.28;;;24.52;43.13
68399;BME280;56258;52.196;13.868;2022-07-09T11:28:24;101874.28;;;24.52;42.80
68399;BME280;56258;52.196;13.868;2022-07-09T11:31:02;101868.66;;;24.53;43.37
68399;BME280;56258;52.196;13.868;2022-07-09T11:33:30;101859.44;;;24.54;43.08
68399;BME280;56258;52.196;13.868;2022-07-09T11:36:17;101864.34;;;24.59;42.91
68399;BME280;56258;52.196;13.868;2022-07-09T11:38:51;101861.06;;;24.78;42.56
68399;BME280;56258;52.196;13.868;2022-07-09T11:41:19;101857.41;;;24.71;42.32
68399;BME280;56258;52.196;13.868;2022-07-09T11:43:50;101848.47;;;24.77;42.58
68399;BME280;56258;52.196;13.868;2022-07-09T11:46:20;101849.13;;;24.94;42.03
68399;BME280;56258;52.196;13.868;2022-07-09T11:48:51;101849.97;;;24.94;42.07
68399;BME280;56258;52.196;13.868;2022-07-09T11:51:32;101840.41;;;25.13;41.68
68399;BME280;56258;52.196;13.868;2022-07-09T11:54:02;101833.47;;;24.96;42.09
68399;BME280;56258;52.196;13.868;2022-07-09T11:56:45;101834.03;;;25.06;41.72
68399;BME280;56258;52.196;13.868;2022-07-09T11:59:12;101836.97;;;25.05;41.81
68399;BME280;56258;52.196;13.868;2022-07-09T12:01:40;101827.97;;;24.89;42.39
68399;BME280;56258;52.196;13.868;2022-07-09T12:04:06;101815.06;;;24.98;42.12
68399;BME280;56258;52.196;13.868;2022-07-09T12:06:48;101812.91;;;25.08;41.48
68399;BME280;56258;52.196;13.868;2022-07-09T12:09:27;101811.53;;;24.83;42.33
68399;BME280;56258;52.196;13.868;2022-07-09T12:11:55;101814.56;;;24.73;42.44
68399;BME280;56258;52.196;13.868;2022-07-09T12:14:22;101800.53;;;24.55;42.86
68399;BME280;56258;52.196;13.868;2022-07-09T12:16:48;101805.75;;;24.41;43.35
68399;BME280;56258;52.196;13.868;2022-07-09T12:19:15;101804.50;;;24.29;43.69
68399;BME280;56258;52.196;13.868;2022-07-09T12:21:41;101802.34;;;24.25;43.55
68399;BME280;56258;52.196;13.868;2022-07-09T12:24:08;101797.69;;;24.48;43.17
68399;BME280;56258;52.196;13.868;2022-07-09T12:26:35;101802.50;;;24.97;42.35
68399;BME280;56258;52.196;13.868;2022-07-09T12:29:01;101787.50;;;24.86;42.53
68399;BME280;56258;52.196;13.868;2022-07-09T12:31:28;101790.16;;;24.65;42.96
68399;BME280;56258;52.196;13.868;2022-07-09T12:33:55;101784.63;;;25.02;42.10
68399;BME280;56258;52.196;13.868;2022-07-09T12:36:21;101776.94;;;25.27;41.42
68399;BME280;56258;52.196;13.868;2022-07-09T12:39:08;101769.53;;;25.43;41.05
68399;BME280;56258;52.196;13.868;2022-07-09T12:41:35;101764.47;;;25.61;41.01
68399;BME280;56258;52.196;13.868;2022-07-09T12:44:01;101751.94;;;25.67;40.93